Map

Track Data

SID SEASON NUMBER BASIN SUBBASIN NAME ISO_TIME NATURE LAT LON WMO_WIND WMO_PRES WMO_AGENCY TRACK_TYPE DIST2LAND LANDFALL IFLAG USA_AGENCY USA_ATCF_ID USA_LAT USA_LON USA_RECORD USA_STATUS USA_WIND USA_PRES USA_SSHS USA_R34_NE USA_R34_SE USA_R34_SW USA_R34_NW USA_R50_NE USA_R50_SE USA_R50_SW USA_R50_NW USA_R64_NE USA_R64_SE USA_R64_SW USA_R64_NW USA_POCI USA_ROCI USA_RMW USA_EYE TOKYO_LAT TOKYO_LON TOKYO_GRADE TOKYO_WIND TOKYO_PRES TOKYO_R50_DIR TOKYO_R50_LONG TOKYO_R50_SHORT TOKYO_R30_DIR TOKYO_R30_LONG TOKYO_R30_SHORT TOKYO_LAND CMA_LAT CMA_LON CMA_CAT CMA_WIND CMA_PRES HKO_LAT HKO_LON HKO_CAT HKO_WIND HKO_PRES NEWDELHI_LAT NEWDELHI_LON NEWDELHI_GRADE NEWDELHI_WIND NEWDELHI_PRES NEWDELHI_CI NEWDELHI_DP NEWDELHI_POCI REUNION_LAT REUNION_LON REUNION_TYPE REUNION_WIND REUNION_PRES REUNION_TNUM REUNION_CI REUNION_RMW REUNION_R34_NE REUNION_R34_SE REUNION_R34_SW REUNION_R34_NW REUNION_R50_NE REUNION_R50_SE REUNION_R50_SW REUNION_R50_NW REUNION_R64_NE REUNION_R64_SE REUNION_R64_SW REUNION_R64_NW BOM_LAT BOM_LON BOM_TYPE BOM_WIND BOM_PRES BOM_TNUM BOM_CI BOM_RMW BOM_R34_NE BOM_R34_SE BOM_R34_SW BOM_R34_NW BOM_R50_NE BOM_R50_SE BOM_R50_SW BOM_R50_NW BOM_R64_NE BOM_R64_SE BOM_R64_SW BOM_R64_NW BOM_ROCI BOM_POCI BOM_EYE BOM_POS_METHOD BOM_PRES_METHOD NADI_LAT NADI_LON NADI_CAT NADI_WIND NADI_PRES WELLINGTON_LAT WELLINGTON_LON WELLINGTON_WIND WELLINGTON_PRES DS824_LAT DS824_LON DS824_STAGE DS824_WIND DS824_PRES TD9636_LAT TD9636_LON TD9636_STAGE TD9636_WIND TD9636_PRES TD9635_LAT TD9635_LON TD9635_WIND TD9635_PRES TD9635_ROCI NEUMANN_LAT NEUMANN_LON NEUMANN_CLASS NEUMANN_WIND NEUMANN_PRES MLC_LAT MLC_LON MLC_CLASS MLC_WIND MLC_PRES USA_GUST BOM_GUST BOM_GUST_PER REUNION_GUST REUNION_GUST_PER USA_SEAHGT USA_SEARAD_NE USA_SEARAD_SE USA_SEARAD_SW USA_SEARAD_NW STORM_SPEED STORM_DIR
1918215N20145 1918 45 WP MM NOT_NAMED 1918-08-03 10:00:00 NR 19.5000 145.100 main 1793 1769 __________O___ -1 19.5000 145.100 4 8 331
1918215N20145 1918 45 WP MM NOT_NAMED 1918-08-03 12:00:00 NR 19.7303 144.965 main 1769 1720 __________P___ -1 19.7303 144.965 4 8 332
1918215N20145 1918 45 WP MM NOT_NAMED 1918-08-03 15:00:00 NR 20.0767 144.768 main 1720 1683 __________P___ -1 20.0767 144.768 4 8 333
1918215N20145 1918 45 WP MM NOT_NAMED 1918-08-03 18:00:00 NR 20.4261 144.590 main 1683 1634 __________P___ -1 20.4261 144.590 4 8 337
1918215N20145 1918 45 WP MM NOT_NAMED 1918-08-03 21:00:00 NR 20.7805 144.441 main 1634 1623 __________P___ -1 20.7805 144.441 4 8 340
1918215N20145 1918 45 WP MM NOT_NAMED 1918-08-03 22:00:00 NR 20.9000 144.400 main 1623 1599 __________O___ -1 20.9000 144.400 4 8 344
1918215N20145 1918 45 WP MM NOT_NAMED 1918-08-04 00:00:00 NR 21.1416 144.333 main 1599 1556 __________P___ -1 21.1416 144.333 4 8 348
1918215N20145 1918 45 WP MM NOT_NAMED 1918-08-04 03:00:00 NR 21.5103 144.263 main 1556 1510 __________P___ -1 21.5103 144.263 4 8 352
1918215N20145 1918 45 WP MM NOT_NAMED 1918-08-04 06:00:00 NR 21.8866 144.223 main 1510 1467 __________P___ -1 21.8866 144.223 4 8 356
1918215N20145 1918 45 WP MM NOT_NAMED 1918-08-04 09:00:00 NR 22.2704 144.204 main 1467 1456 __________P___ -1 22.2704 144.204 4 8 0
1918215N20145 1918 45 WP MM NOT_NAMED 1918-08-04 10:00:00 NR 22.4000 144.200 main 1456 1424 __________O___ -1 22.4000 144.200 4 8 357
1918215N20145 1918 45 WP MM NOT_NAMED 1918-08-04 12:00:00 NR 22.6636 144.186 main 1424 1381 __________P___ -1 22.6636 144.186 4 8 358
1918215N20145 1918 45 WP MM NOT_NAMED 1918-08-04 15:00:00 NR 23.0653 144.177 main 1381 1338 __________P___ -1 23.0653 144.177 4 8 358
1918215N20145 1918 45 WP MM NOT_NAMED 1918-08-04 18:00:00 NR 23.4691 144.181 main 1338 1295 __________P___ -1 23.4691 144.181 4 8 0
1918215N20145 1918 45 WP MM NOT_NAMED 1918-08-04 21:00:00 NR 23.8688 144.194 main 1295 1285 __________P___ -1 23.8688 144.194 4 8 0
1918215N20145 1918 45 WP MM NOT_NAMED 1918-08-04 22:00:00 NR 24.0000 144.200 main 1285 1253 __________O___ -1 24.0000 144.200 4 8 4
1918215N20145 1918 45 WP MM NOT_NAMED 1918-08-05 00:00:00 NR 24.2557 144.224 main 1253 1224 __________P___ -1 24.2557 144.224 4 8 5
1918215N20145 1918 45 WP MM NOT_NAMED 1918-08-05 03:00:00 NR 24.6329 144.266 main 1224 1182 __________P___ -1 24.6329 144.266 4 8 5
1918215N20145 1918 45 WP MM NOT_NAMED 1918-08-05 06:00:00 NR 25.0054 144.300 main 1182 1140 __________P___ -1 25.0054 144.300 4 7 3
1918215N20145 1918 45 WP MM NOT_NAMED 1918-08-05 09:00:00 NR 25.3762 144.307 main 1140 1130 __________P___ -1 25.3762 144.307 4 7 0
1918215N20145 1918 45 WP MM NOT_NAMED 1918-08-05 10:00:00 NR 25.5000 144.300 main 1130 1109 __________O___ -1 25.5000 144.300 4 8 356
1918215N20145 1918 45 WP MM NOT_NAMED 1918-08-05 12:00:00 NR 25.7484 144.270 main 1109 1064 __________P___ -1 25.7484 144.270 4 8 351
1918215N20145 1918 45 WP MM NOT_NAMED 1918-08-05 15:00:00 NR 26.1226 144.188 main 1064 1019 __________P___ -1 26.1226 144.188 4 8 347
1918215N20145 1918 45 WP MM NOT_NAMED 1918-08-05 18:00:00 NR 26.4982 144.076 main 1019 970 __________P___ -1 26.4982 144.076 4 8 344
1918215N20145 1918 45 WP MM NOT_NAMED 1918-08-05 21:00:00 NR 26.8745 143.945 main 970 959 __________P___ -1 26.8745 143.945 4 8 342
1918215N20145 1918 45 WP MM NOT_NAMED 1918-08-05 22:00:00 NR 27.0000 143.900 main 959 __________O___ -1 27.0000 143.900 4 8 343

Digital Typhoon Data and Search

About IBTrACS Database

This database is a web-friendly format of International Best Track Archive for Climate Stewardship (IBTrACS), a global best track data archive curated by NOAA dating back to 1842.

Updated: 2021-11-26